Data for 06/15/2006

Time Sea-Level Adjusted Pressure Absolute Pressure Temperature Relative Humidity Dew Point   
(mb) (inHg) (mb) (inHg) (C) (F) (%) (C) (F)
00:05 1015 29.97 844 24.92 8.9 48 83 6.2 43.2
00:10 1015 29.97 844 24.92 9.3 48.8 83 6.5 43.7
00:15 1015 29.97 844 24.92 9.4 49 86 7.2 45
00:20 1015 29.97 844 24.92 9.2 48.6 89 7.6 45.6
00:25 1015 29.97 844 24.92 9.1 48.3 90 7.6 45.7
00:30 1015 29.97 844 24.92 8.9 48 91 7.5 45.5
00:35 1015 29.97 844 24.92 8.9 47.9 92 7.6 45.6
00:40 1015 29.97 844 24.92 8.7 47.7 92 7.5 45.4
00:45 1015 29.97 844 24.92 8.7 47.6 92 7.5 45.4
00:50 1015 29.97 844 24.92 8.8 47.8 91 7.5 45.4
00:55 1015 29.97 844 24.92 9 48.2 88 7.1 44.8
01:00 1015 29.97 844 24.92 9.2 48.6 87 7.1 44.8
01:05 1015 29.97 844 24.92 9.4 48.9 87 7.3 45.1
01:10 1015 29.97 844 24.92 9.4 48.9 86 7.1 44.8
01:15 1015 29.97 844 24.92 9.4 49 88 7.5 45.5
01:20 1015 29.97 844 24.92 9.4 48.8 88 7.5 45.4
01:25 1015 29.97 844 24.92 9.4 48.9 87 7.4 45.3
01:30 1015 29.97 844 24.92 9.4 49 87 7.4 45.4
01:35 1015 29.97 844 24.92 9.3 48.8 89 7.5 45.6
01:40 1015 29.97 844 24.92 9.2 48.6 88 7.3 45.2
01:45 1015 29.97 844 24.92 9.1 48.4 87 7 44.6
01:50 1015 29.97 844 24.92 9.1 48.3 84 6.5 43.8
01:55 1015 29.97 844 24.92 9 48.2 84 6.5 43.8
02:00 1015 29.97 844 24.92 9 48.1 85 6.6 43.8
02:05 1015 29.97 844 24.92 8.7 47.7 84 6.1 43
02:10 1014 29.94 844 24.92 8.6 47.6 82 5.8 42.5
02:15 1014 29.94 844 24.92 8.7 47.6 84 6.2 43.1
02:20 1015 29.97 844 24.92 8.6 47.4 84 6 42.9
02:25 1015 29.97 844 24.92 8.6 47.4 82 5.6 42.1
02:30 1015 29.97 844 24.92 8.6 47.5 80 5.4 41.7
02:35 1014 29.94 844 24.92 8.5 47.3 81 5.4 41.8
02:40 1014 29.94 844 24.92 8.4 47.2 81 5.4 41.8
02:45 1014 29.94 844 24.92 8.4 47 82 5.4 41.7
02:50 1014 29.94 844 24.92 8.3 46.9 82 5.3 41.6
02:55 1014 29.94 844 24.92 8.1 46.6 82 5.3 41.5
03:00 1014 29.94 844 24.92 8.1 46.5 82 5.3 41.5
03:05 1014 29.94 844 24.92 8.1 46.5 82 5.1 41.2
03:10 1014 29.94 844 24.92 8.1 46.5 81 5 41.1
03:15 1014 29.94 843 24.89 8 46.4 82 5.1 41.2
03:20 1014 29.94 844 24.92 8 46.3 83 5.2 41.4
03:25 1014 29.94 843 24.89 8 46.3 82 5.2 41.3
03:30 1014 29.94 843 24.89 7.9 46.3 82 5.1 41.2
03:35 1014 29.94 843 24.89 7.9 46.3 82 5 41
03:40 1014 29.94 843 24.89 8 46.5 80 4.9 40.8
03:45 1014 29.94 843 24.89 8.1 46.5 81 5 41.1
03:50 1014 29.94 843 24.89 7.9 46.3 82 5.1 41.1
03:55 1014 29.94 843 24.89 7.8 46 85 5.4 41.8
04:00 1014 29.94 843 24.89 7.5 45.6 85 5.2 41.4
04:05 1014 29.94 843 24.89 7.2 45 88 5.4 41.7
04:10 1014 29.94 843 24.89 6.8 44.3 88 5 41
04:15 1014 29.94 843 24.89 6.9 44.4 87 4.8 40.6
04:20 1014 29.94 843 24.89 7 44.6 88 5.1 41.1
04:25 1014 29.94 843 24.89 7.1 44.7 87 5 41
04:30 1014 29.94 843 24.89 7.2 44.9 86 5 41.1
04:35 1014 29.94 843 24.89 7.3 45.1 88 5.5 41.9
04:40 1014 29.94 843 24.89 7.3 45.1 90 5.7 42.2
04:45 1014 29.94 843 24.89 7.2 44.9 90 5.6 42
04:50 1014 29.94 843 24.89 7 44.6 87 5 41
04:55 1014 29.94 843 24.89 7 44.6 88 5.1 41.1
05:00 1014 29.94 843 24.89 6.9 44.5 88 5.1 41.1
05:05 1014 29.94 843 24.89 6.9 44.4 88 5.1 41.1
05:10 1014 29.94 843 24.89 7 44.6 85 4.6 40.2
05:15 1014 29.94 843 24.89 7.2 44.9 86 5 41
05:20 1014 29.94 843 24.89 6.9 44.4 89 5.2 41.3
05:25 1014 29.94 843 24.89 6.5 43.8 88 4.8 40.6
05:30 1014 29.94 843 24.89 6.5 43.7 87 4.6 40.2
05:35 1014 29.94 843 24.89 6.5 43.7 88 4.6 40.2
05:40 1014 29.94 843 24.89 6.6 43.8 84 4.1 39.4
05:45 1014 29.94 843 24.89 6.5 43.6 88 4.6 40.3
05:50 1014 29.94 843 24.89 6.2 43.2 87 4.2 39.5
05:55 1014 29.94 843 24.89 6.1 42.9 89 4.4 39.9
06:00 1014 29.94 843 24.89 5.7 42.3 90 4.2 39.6
06:05 1014 29.94 843 24.89 5.7 42.2 89 4 39.2
06:10 1014 29.94 843 24.89 5.7 42.3 88 3.9 39.1
06:15 1014 29.94 843 24.89 5.8 42.4 88 3.9 39
06:20 1014 29.94 844 24.92 5.8 42.4 87 3.8 38.9
06:25 1014 29.94 844 24.92 5.9 42.7 87 3.9 39
06:30 1014 29.94 844 24.92 6.2 43.2 86 4.1 39.3
06:35 1014 29.94 844 24.92 6.2 43.2 86 4.1 39.4
06:40 1014 29.94 844 24.92 6.4 43.5 87 4.3 39.8
06:45 1014 29.94 844 24.92 6.6 43.9 87 4.6 40.3
06:50 1014 29.94 844 24.92 6.8 44.2 86 4.6 40.2
06:55 1014 29.94 844 24.92 6.7 44.1 88 4.9 40.8
07:00 1014 29.94 844 24.92 6.8 44.2 87 4.8 40.6
07:05 1014 29.94 844 24.92 7 44.7 85 4.7 40.5
07:10 1015 29.97 844 24.92 6.9 44.5 85 4.6 40.3
07:15 1015 29.97 844 24.92 7 44.6 84 4.5 40.1
07:20 1015 29.97 844 24.92 7.7 45.9 82 4.8 40.7
07:25 1014 29.94 844 24.92 8 46.4 82 5.2 41.3
07:30 1014 29.94 844 24.92 8.4 47.1 80 5.1 41.1
07:35 1014 29.94 844 24.92 8.6 47.6 82 5.7 42.3
07:40 1014 29.94 844 24.92 9.2 48.6 77 5.5 41.9
07:45 1014 29.94 844 24.92 9.7 49.5 77 5.9 42.7
07:50 1014 29.94 844 24.92 9.8 49.6 79 6.3 43.4
07:55 1014 29.94 844 24.92 10.5 50.9 73 5.9 42.6
08:00 1014 29.94 844 24.92 11.2 52.1 67 5.3 41.6
08:05 1014 29.94 844 24.92 12.1 53.7 66 5.9 42.5
08:10 1014 29.94 844 24.92 12.6 54.6 63 5.7 42.3
08:15 1014 29.94 843 24.89 13 55.5 63 6.2 43.2
08:20 1014 29.94 843 24.89 13.4 56.1 60 5.9 42.6
08:25 1014 29.94 843 24.89 13 55.5 53 3.8 38.8
08:30 1014 29.94 843 24.89 12.9 55.2 53 3.7 38.6
08:35 1014 29.94 843 24.89 12.9 55.3 54 3.9 39.1
08:40 1014 29.94 843 24.89 13.1 55.5 52 3.4 38.1
08:45 1014 29.94 843 24.89 13.3 55.9 49 2.8 37
08:50 1014 29.94 843 24.89 13.7 56.6 49 3.2 37.8
08:55 1014 29.94 843 24.89 13.8 56.8 46 2.4 36.4
09:00 1014 29.94 843 24.89 13.6 56.5 47 2.7 36.8
09:05 1014 29.94 843 24.89 13.7 56.6 45 2.2 35.9
09:10 1014 29.94 843 24.89 14.1 57.3 46 2.5 36.6
09:15 1014 29.94 843 24.89 14.5 58.1 45 2.9 37.3
09:20 1014 29.94 843 24.89 14.6 58.2 43 2.3 36.1
09:25 1014 29.94 843 24.89 14 57.2 45 2.4 36.4
09:30 1014 29.94 843 24.89 13.7 56.7 44 1.7 35
09:35 1014 29.94 843 24.89 13.9 57.1 41 1.1 34
09:40 1014 29.94 843 24.89 14.2 57.6 40 0.9 33.7
09:45 1014 29.94 843 24.89 14.4 58 39 0.8 33.4
09:50 1014 29.94 843 24.89 14.3 57.8 42 1.7 35
09:55 1014 29.94 843 24.89 14.5 58 40 1.1 34
10:00 1014 29.94 843 24.89 14.4 58 41 1.5 34.8
10:05 1014 29.94 843 24.89 14.9 58.8 39 1.1 34
10:10 1014 29.94 843 24.89 14.7 58.4 39 0.8 33.5
10:15 1014 29.94 843 24.89 14.5 58.2 39 0.9 33.7
10:20 1013 29.91 843 24.89 15 59 38 0.9 33.6
10:25 1013 29.91 843 24.89 14.7 58.5 39 1 33.7
10:30 1013 29.91 843 24.89 14.9 58.8 38 0.6 33.1
10:35 1013 29.91 843 24.89 15.4 59.6 36 0.6 33.1
10:40 1013 29.91 843 24.89 15.5 59.8 35 0.2 32.3
10:45 1013 29.91 843 24.89 14.9 58.8 38 1 33.7
10:50 1013 29.91 843 24.89 15.4 59.7 38 1.1 33.9
10:55 1013 29.91 842 24.86 15.2 59.4 36 0.2 32.4
11:00 1013 29.91 842 24.86 15.4 59.7 35 0.3 32.5
11:05 1013 29.91 842 24.86 15.7 60.2 36 0.8 33.4
11:10 1013 29.91 842 24.86 16.2 61.2 35 0.8 33.4
11:15 1013 29.91 842 24.86 16.1 61 34 0.4 32.7
11:20 1013 29.91 842 24.86 16.2 61.1 34 0.4 32.7
11:25 1013 29.91 842 24.86 16.3 61.3 35 1.1 33.9
11:30 1013 29.91 842 24.86 16.4 61.4 35 1 33.8
11:35 1013 29.91 842 24.86 16 60.8 35 0.6 33.1
11:40 1013 29.91 842 24.86 16.9 62.3 36 1.8 35.2
11:45 1013 29.91 842 24.86 17.2 63 34 1.3 34.3
11:50 1013 29.91 842 24.86 17.5 63.4 33 0.9 33.7
11:55 1013 29.91 842 24.86 17 62.7 34 1.3 34.3
12:00 1013 29.91 842 24.86 17.5 63.4 31 0.4 32.8
12:05 1013 29.91 842 24.86 16.9 62.5 33 0.7 33.2
12:10 1013 29.91 842 24.86 17.3 63.2 34 1.2 34.2
12:15 1013 29.91 842 24.86 17.7 63.8 35 2.1 35.8
12:20 1013 29.91 842 24.86 17.7 63.8 33 1.5 34.7
12:25 1013 29.91 842 24.86 17.3 63.1 32 0.6 33.2
12:30 1013 29.91 842 24.86 17.4 63.3 33 1.2 34.2
12:35 1013 29.91 842 24.86 17.3 63.1 33 0.8 33.5
12:40 1013 29.91 842 24.86 17.5 63.6 31 0.2 32.3
12:45 1013 29.91 842 24.86 18 64.4 31 0.8 33.5
12:50 1013 29.91 842 24.86 18.2 64.8 31 1.1 34
12:55 1013 29.91 842 24.86 18 64.4 31 0.9 33.7
13:00 1013 29.91 842 24.86 17.9 64.3 33 1.5 34.6
13:05 1013 29.91 842 24.86 17.2 63 32 0.6 33.2
13:10 1013 29.91 842 24.86 17.3 63.1 29 -0.9 30.3
13:15 1013 29.91 842 24.86 17.3 63.1 31 0 32.1
13:20 1013 29.91 842 24.86 17 62.5 32 0.4 32.6
13:25 1013 29.91 842 24.86 17.2 63 31 0.2 32.4
13:30 1013 29.91 842 24.86 17.4 63.3 33 1.3 34.3
13:35 1013 29.91 842 24.86 17 62.6 32 0.2 32.3
13:40 1013 29.91 842 24.86 17.1 62.8 32 0.2 32.4
13:45 1013 29.91 842 24.86 17.4 63.3 31 0.3 32.6
13:50 1013 29.91 842 24.86 17.6 63.6 31 0.3 32.6
13:55 1013 29.91 842 24.86 17.7 63.8 32 0.9 33.7
14:00 1013 29.91 842 24.86 17.5 63.5 31 0.3 32.5
14:05 1013 29.91 842 24.86 18.1 64.6 30 0.5 32.9
14:10 1012 29.88 842 24.86 18.1 64.7 30 0.5 33
14:15 1013 29.91 842 24.86 18.2 64.7 30 0.4 32.6
14:20 1012 29.88 842 24.86 18.2 64.7 30 0.5 32.9
14:25 1012 29.88 842 24.86 18.6 65.5 29 0.6 33.1
14:30 1012 29.88 842 24.86 19 66.2 29 0.8 33.4
14:35 1012 29.88 842 24.86 19.1 66.4 30 1.4 34.6
14:40 1012 29.88 842 24.86 18.7 65.7 31 1.2 34.2
14:45 1012 29.88 842 24.86 18.6 65.4 28 -0.1 31.8
14:50 1012 29.88 842 24.86 18.7 65.7 29 0.7 33.2
14:55 1012 29.88 842 24.86 19.2 66.6 31 1.7 35.1
15:00 1012 29.88 842 24.86 18.8 65.8 31 1.5 34.7
15:05 1012 29.88 842 24.86 18.7 65.6 29 0.6 33.2
15:10 1012 29.88 842 24.86 19 66.2 28 0.3 32.5
15:15 1012 29.88 842 24.86 19.2 66.6 27 -0.1 31.9
15:20 1012 29.88 842 24.86 18.7 65.6 30 1 33.9
15:25 1012 29.88 842 24.86 18.8 65.9 29 0.5 33
15:30 1012 29.88 842 24.86 19.7 67.4 27 0.5 33
15:35 1012 29.88 842 24.86 19.6 67.2 29 1.1 34
15:40 1012 29.88 842 24.86 19.5 67 29 1.2 34.2
15:45 1012 29.88 842 24.86 19 66.2 31 1.6 34.9
15:50 1012 29.88 842 24.86 18.8 65.8 30 0.9 33.7
15:55 1012 29.88 842 24.86 19 66.2 28 -0 32
16:00 1012 29.88 842 24.86 19 66.1 28 0.3 32.6
16:05 1012 29.88 842 24.86 19 66.1 29 0.6 33
16:10 1012 29.88 842 24.86 18.9 66.1 30 1.2 34.1
16:15 1012 29.88 842 24.86 19.5 67.2 28 0.9 33.7
16:20 1012 29.88 842 24.86 19.4 66.8 28 0.3 32.6
16:25 1012 29.88 842 24.86 19.1 66.4 29 0.8 33.5
16:30 1013 29.91 842 24.86 19.1 66.4 30 1.2 34.2
16:35 1013 29.91 842 24.86 19.2 66.5 29 0.8 33.4
16:40 1013 29.91 842 24.86 19 66.3 27 -0 32
16:45 1013 29.91 842 24.86 18.7 65.7 29 0.6 33.1
16:50 1013 29.91 842 24.86 18.8 65.8 30 0.9 33.5
16:55 1013 29.91 842 24.86 19.2 66.6 30 1.6 34.9
17:00 1013 29.91 842 24.86 19.1 66.4 31 1.8 35.3
17:05 1013 29.91 842 24.86 18.9 66 28 0.2 32.3
17:10 1013 29.91 842 24.86 19.2 66.6 28 0.6 33
17:15 1013 29.91 842 24.86 19 66.3 28 0.3 32.5
17:20 1013 29.91 842 24.86 18.4 65 29 0.3 32.6
17:25 1013 29.91 842 24.86 18.1 64.6 28 -0.5 31.2
17:30 1013 29.91 842 24.86 18.1 64.6 30 0.5 32.8
17:35 1013 29.91 842 24.86 18.2 64.8 30 0.3 32.5
17:40 1013 29.91 842 24.86 18.1 64.6 28 -0.5 31.1
17:45 1013 29.91 842 24.86 17.9 64.3 30 0.2 32.4
17:50 1013 29.91 842 24.86 17.9 64.1 30 0.4 32.7
17:55 1013 29.91 842 24.86 17.9 64.1 30 0.2 32.4
18:00 1013 29.91 842 24.86 17.7 63.9 32 0.9 33.7
18:05 1013 29.91 842 24.86 17.6 63.6 33 1.1 33.9
18:10 1013 29.91 842 24.86 17.5 63.4 32 0.9 33.7
18:15 1013 29.91 842 24.86 17.4 63.4 31 0.2 32.4
18:20 1013 29.91 842 24.86 17.4 63.3 31 0.4 32.8
18:25 1013 29.91 842 24.86 17.3 63.2 30 -0.2 31.7
18:30 1013 29.91 842 24.86 17.5 63.5 29 -0.8 30.6
18:35 1013 29.91 842 24.86 17.5 63.6 28 -1.3 29.7
18:40 1013 29.91 842 24.86 17.7 63.8 27 -1.3 29.7
18:45 1013 29.91 842 24.86 17.8 64.1 28 -0.7 30.7
18:50 1013 29.91 842 24.86 17.8 64.1 29 -0.4 31.3
18:55 1013 29.91 842 24.86 17.7 63.9 30 0.2 32.4
19:00 1013 29.91 843 24.89 17.5 63.6 29 -0.4 31.3
19:05 1013 29.91 843 24.89 17.4 63.3 30 -0.2 31.6
19:10 1013 29.91 843 24.89 17.3 63.2 31 0.2 32.4
19:15 1013 29.91 843 24.89 17.3 63.1 30 -0.4 31.2
19:20 1014 29.94 843 24.89 17.4 63.2 30 -0.2 31.6
19:25 1014 29.94 843 24.89 17.3 63.2 31 0.2 32.4
19:30 1014 29.94 843 24.89 17.3 63.1 33 0.8 33.4
19:35 1014 29.94 843 24.89 17.2 62.9 33 1 33.8
19:40 1014 29.94 843 24.89 17.1 62.7 34 1.4 34.5
19:45 1014 29.94 843 24.89 17 62.5 36 1.9 35.4
19:50 1014 29.94 843 24.89 17 62.5 37 2.2 36
19:55 1014 29.94 843 24.89 16.9 62.4 38 2.5 36.6
20:00 1014 29.94 843 24.89 16.8 62.2 38 2.4 36.4
20:05 1014 29.94 843 24.89 16.7 62 34 0.8 33.4
20:10 1014 29.94 843 24.89 16.4 61.4 33 0.3 32.5
20:15 1014 29.94 843 24.89 16.2 61.1 34 0.3 32.6
20:20 1014 29.94 844 24.92 16 60.8 35 0.6 33
20:25 1014 29.94 844 24.92 15.8 60.4 36 1 33.8
20:30 1014 29.94 844 24.92 15.6 60.2 37 1.1 33.9
20:35 1014 29.94 844 24.92 15.4 59.7 38 1.1 34
20:40 1015 29.97 844 24.92 15.2 59.4 37 0.9 33.6
20:45 1015 29.97 844 24.92 15.1 59.1 38 1 33.8
20:50 1015 29.97 844 24.92 14.9 58.9 39 1.2 34.1
20:55 1015 29.97 844 24.92 14.9 58.7 39 1.2 34.2
21:00 1015 29.97 844 24.92 14.7 58.5 40 1.4 34.6
21:05 1015 29.97 844 24.92 14.6 58.3 41 1.4 34.6
21:10 1015 29.97 844 24.92 14.6 58.3 41 1.6 34.8
21:15 1015 29.97 844 24.92 14.5 58.1 41 1.6 34.9
21:20 1015 29.97 844 24.92 14.4 57.9 41 1.6 34.8
21:25 1015 29.97 844 24.92 14.4 57.9 42 1.6 35
21:30 1015 29.97 844 24.92 14.2 57.5 50 4 39.2
21:35 1015 29.97 844 24.92 13.2 55.7 51 3.3 38
21:40 1015 29.97 844 24.92 12.8 55.1 51 3.1 37.5
21:45 1015 29.97 845 24.95 12.9 55.2 50 2.7 36.8
21:50 1015 29.97 845 24.95 13.3 55.9 45 1.6 34.8
21:55 1015 29.97 845 24.95 13.7 56.7 42 1.2 34.2
22:00 1016 30 845 24.95 13.9 56.9 41 0.9 33.5
22:05 1016 30 845 24.95 14 57.2 41 1.1 33.9
22:10 1016 30 845 24.95 14.1 57.3 39 0.4 32.8
22:15 1016 30 845 24.95 14.1 57.3 38 -0.1 31.8
22:20 1016 30 845 24.95 14 57.2 39 0.2 32.4
22:25 1016 30 845 24.95 14 57.1 40 0.6 33.1
22:30 1016 30 845 24.95 13.9 57 40 0.6 33.2
22:35 1016 30 845 24.95 13.9 56.9 39 0.3 32.6
22:40 1016 30 845 24.95 14 57.2 40 0.7 33.3
22:45 1016 30 845 24.95 13.9 57 41 0.9 33.6
22:50 1016 30 845 24.95 13.7 56.6 42 0.9 33.7
22:55 1016 30 845 24.95 13.6 56.5 41 0.9 33.5
23:00 1016 30 845 24.95 13.7 56.6 40 0.3 32.6
23:05 1016 30 845 24.95 13.9 57 40 0.5 32.9
23:10 1016 30 845 24.95 14 57.2 39 0.2 32.3
23:15 1016 30 845 24.95 14.1 57.3 39 0.4 32.7
23:20 1016 30 845 24.95 14 57.2 39 0.5 32.8
23:25 1016 30 845 24.95 13.9 57.1 41 0.8 33.5
23:30 1016 30 845 24.95 13.9 57 40 0.6 33.1
23:35 1016 30 845 24.95 14 57.2 39 0.4 32.7
23:40 1016 30 845 24.95 14.2 57.6 36 -0.5 31
23:45 1016 30 845 24.95 14.3 57.8 38 0.1 32.2
23:50 1016 30 845 24.95 14.2 57.6 39 0.6 33.1
23:55 1016 30 845 24.95 14 57.2 41 1 33.8
24:00 1016 30 845 24.95 13.8 56.8 42 1.3 34.3